Time;durP1;ratioP1;P1;durP2;ratioP2;P2;SDS_P1;SDS_P2;PMS_P1;PMS_P2;Temp;Humidity;BMP_temperature;BMP_pressure;BME280_temperature;BME280_humidity;BME280_pressure;Samples;Min_cycle;Max_cycle;Signal;HPM_P1;HPM_P2
2022/08/17 00:01:25;;;;;;;5.93;5.43;;;29.20;56.10;;;;;;4969309;28;20541;-72
2022/08/17 00:03:52;;;;;;;6.47;6.00;;;29.20;56.10;;;;;;4983779;28;20462;-72
2022/08/17 00:06:24;;;;;;;6.97;6.47;;;29.20;56.10;;;;;;4953241;28;20936;-73
2022/08/17 00:08:57;;;;;;;6.93;6.00;;;29.20;56.10;;;;;;4973443;28;20462;-72
2022/08/17 00:11:30;;;;;;;6.63;6.03;;;29.20;56.10;;;;;;4968818;28;20940;-72
2022/08/17 00:14:00;;;;;;;6.20;5.70;;;29.20;56.10;;;;;;4983579;28;20505;-72
2022/08/17 00:16:34;;;;;;;6.67;5.80;;;29.10;56.10;;;;;;4936822;29;20478;-73
2022/08/17 00:19:02;;;;;;;6.23;5.73;;;29.10;56.10;;;;;;4942864;28;20447;-73
2022/08/17 00:21:36;;;;;;;6.13;5.60;;;29.10;56.10;;;;;;4949482;29;20507;-73
2022/08/17 00:24:02;;;;;;;7.00;6.40;;;29.10;56.10;;;;;;4976633;28;20471;-72
2022/08/17 00:26:28;;;;;;;6.60;5.57;;;29.10;56.10;;;;;;4953565;28;20968;-73
2022/08/17 00:29:17;;;;;;;6.50;6.00;;;29.00;56.10;;;;;;4932012;28;20497;-73
2022/08/17 00:31:45;;;;;;;7.03;6.53;;;29.00;56.10;;;;;;4952937;28;20462;-73
2022/08/17 00:34:16;;;;;;;6.60;6.00;;;29.00;56.10;;;;;;4983662;28;20941;-72
2022/08/17 00:36:44;;;;;;;6.13;5.63;;;29.00;56.10;;;;;;4973882;28;20462;-73
2022/08/17 00:39:13;;;;;;;6.37;5.87;;;29.00;56.10;;;;;;4960183;28;20451;-73
2022/08/17 00:41:41;;;;;;;6.20;5.70;;;29.00;56.10;;;;;;4967730;28;20430;-73
2022/08/17 00:44:08;;;;;;;6.87;6.37;;;29.00;56.20;;;;;;4983630;28;20995;-73
2022/08/17 00:46:39;;;;;;;6.50;6.00;;;29.00;56.20;;;;;;4984107;28;20454;-73
2022/08/17 00:49:08;;;;;;;7.00;6.40;;;28.90;56.10;;;;;;4952990;28;20455;-72
2022/08/17 00:51:47;;;;;;;6.60;6.10;;;29.00;56.20;;;;;;4983703;28;20546;-72
2022/08/17 00:54:23;;;;;;;7.40;6.80;;;28.90;56.20;;;;;;4935327;28;20458;-72
2022/08/17 00:57:15;;;;;;;6.47;5.97;;;28.90;56.10;;;;;;4961293;28;20437;-73
2022/08/17 00:59:53;;;;;;;6.97;6.37;;;28.90;56.20;;;;;;4970988;28;20477;-73
2022/08/17 01:02:19;;;;;;;7.10;6.60;;;28.90;56.20;;;;;;4970837;28;20501;-73
2022/08/17 01:04:53;;;;;;;7.20;6.60;;;28.90;56.20;;;;;;4958543;28;20438;-73
2022/08/17 01:07:25;;;;;;;7.23;6.63;;;28.90;56.20;;;;;;4989634;28;20433;-73
2022/08/17 01:09:54;;;;;;;7.50;6.90;;;28.90;56.20;;;;;;4989830;28;20526;-73
2022/08/17 01:12:27;;;;;;;7.17;6.33;;;28.90;56.20;;;;;;4972056;28;20442;-73
2022/08/17 01:14:53;;;;;;;6.40;5.90;;;28.80;56.20;;;;;;4959664;28;20431;-73
2022/08/17 01:17:19;;;;;;;7.13;6.63;;;28.80;56.20;;;;;;4987851;28;20438;-73
2022/08/17 01:19:45;;;;;;;7.63;7.03;;;28.80;56.20;;;;;;4952513;28;20701;-73
2022/08/17 01:22:11;;;;;;;7.67;7.07;;;28.80;56.20;;;;;;4958839;28;20463;-73
2022/08/17 01:24:41;;;;;;;7.73;7.07;;;28.70;56.20;;;;;;4954426;28;20439;-73
2022/08/17 01:27:11;;;;;;;6.57;5.90;;;28.70;56.20;;;;;;4971880;28;20951;-73
2022/08/17 01:29:40;;;;;;;7.17;6.67;;;28.80;56.20;;;;;;4961087;28;20519;-73
2022/08/17 01:32:08;;;;;;;6.33;5.87;;;28.70;56.20;;;;;;4974999;28;20468;-73
2022/08/17 01:34:34;;;;;;;6.43;6.03;;;28.70;56.20;;;;;;4958333;28;20489;-72
2022/08/17 01:37:03;;;;;;;8.20;7.50;;;28.70;56.20;;;;;;4940363;29;20953;-73
2022/08/17 01:39:52;;;;;;;7.10;6.40;;;28.70;56.20;;;;;;4942168;28;20962;-73
2022/08/17 01:42:41;;;;;;;7.17;6.47;;;28.70;56.30;;;;;;4918570;29;20786;-73
2022/08/17 01:45:18;;;;;;;6.80;6.30;;;28.70;56.30;;;;;;4945708;28;20528;-73
2022/08/17 01:47:45;;;;;;;6.97;6.47;;;28.60;56.20;;;;;;4971594;28;20589;-73
2022/08/17 01:50:16;;;;;;;6.77;6.27;;;28.60;56.30;;;;;;4956705;29;20458;-73
2022/08/17 01:52:47;;;;;;;7.93;7.23;;;28.60;56.30;;;;;;4972577;28;20461;-73
2022/08/17 01:55:20;;;;;;;6.80;6.30;;;28.60;56.30;;;;;;4937519;28;20463;-73
2022/08/17 01:57:52;;;;;;;7.50;6.90;;;28.60;56.30;;;;;;4936095;29;20436;-73
2022/08/17 02:00:18;;;;;;;7.90;7.20;;;28.60;56.30;;;;;;4961425;28;20481;-73
2022/08/17 02:02:44;;;;;;;7.50;6.80;;;28.60;56.40;;;;;;4974672;28;20478;-73
2022/08/17 02:05:13;;;;;;;7.03;6.53;;;28.50;56.40;;;;;;4964030;28;20799;-73
2022/08/17 02:07:39;;;;;;;7.53;6.80;;;28.50;56.50;;;;;;4956254;28;20399;-73
2022/08/17 02:10:07;;;;;;;8.10;7.43;;;28.50;56.50;;;;;;4967184;28;21035;-73
2022/08/17 02:12:36;;;;;;;7.10;6.50;;;28.50;56.50;;;;;;4955075;29;20459;-73
2022/08/17 02:15:08;;;;;;;7.47;6.87;;;28.50;56.50;;;;;;4964555;28;20458;-73
2022/08/17 02:17:34;;;;;;;7.20;6.60;;;28.50;56.50;;;;;;4975445;28;20433;-73
2022/08/17 02:20:01;;;;;;;7.53;6.93;;;28.50;56.50;;;;;;4942458;29;20440;-73
2022/08/17 02:22:32;;;;;;;7.63;7.03;;;28.40;56.50;;;;;;4951740;29;21024;-73
2022/08/17 02:25:03;;;;;;;8.10;7.50;;;28.40;56.50;;;;;;4963177;28;20439;-72
2022/08/17 02:27:31;;;;;;;7.90;7.20;;;28.40;56.50;;;;;;4954762;29;21116;-72
2022/08/17 02:30:09;;;;;;;6.97;6.47;;;28.40;56.50;;;;;;4957801;28;20446;-73
2022/08/17 02:32:35;;;;;;;7.53;6.93;;;28.40;56.60;;;;;;4955804;28;20525;-72
2022/08/17 02:35:12;;;;;;;7.57;6.87;;;28.40;56.60;;;;;;4956300;28;20804;-73
2022/08/17 02:37:43;;;;;;;7.97;7.30;;;28.30;56.50;;;;;;4951219;29;20436;-73
2022/08/17 02:40:10;;;;;;;7.20;6.70;;;28.30;57.20;;;;;;4947143;28;20499;-72
2022/08/17 02:42:38;;;;;;;7.30;6.70;;;28.30;56.60;;;;;;4970839;28;20497;-72
2022/08/17 02:45:09;;;;;;;7.67;7.03;;;28.30;56.70;;;;;;4985570;28;20534;-72
2022/08/17 02:47:39;;;;;;;7.77;7.13;;;28.30;56.70;;;;;;4986701;28;20427;-72
2022/08/17 02:50:09;;;;;;;7.87;7.27;;;28.30;56.70;;;;;;4968782;28;20442;-72
2022/08/17 02:52:38;;;;;;;7.40;6.80;;;28.30;56.70;;;;;;4974494;28;20464;-72
2022/08/17 02:55:06;;;;;;;7.90;7.20;;;28.20;56.70;;;;;;4940061;29;20448;-73
2022/08/17 02:57:35;;;;;;;8.23;7.63;;;28.20;56.70;;;;;;4973997;28;20442;-73
2022/08/17 03:00:15;;;;;;;7.97;7.17;;;28.20;56.80;;;;;;4959652;28;20439;-73
2022/08/17 03:02:46;;;;;;;8.73;7.77;;;28.20;56.80;;;;;;4986142;28;21040;-73
2022/08/17 03:05:19;;;;;;;8.20;7.40;;;28.20;56.80;;;;;;4984922;28;20941;-72
2022/08/17 03:07:46;;;;;;;7.73;7.13;;;28.20;56.80;;;;;;4970227;28;20414;-73
2022/08/17 03:10:13;;;;;;;7.53;6.83;;;28.10;56.80;;;;;;4956696;28;20521;-72
2022/08/17 03:12:41;;;;;;;7.70;7.00;;;28.10;56.80;;;;;;4983411;28;20465;-72
2022/08/17 03:15:12;;;;;;;8.80;7.37;;;28.10;56.90;;;;;;4950829;29;20854;-72
2022/08/17 03:17:38;;;;;;;8.50;7.90;;;28.10;56.90;;;;;;4981480;28;20458;-72
2022/08/17 03:20:05;;;;;;;7.27;6.77;;;28.10;56.90;;;;;;4972930;28;20444;-72
2022/08/17 03:22:36;;;;;;;7.40;6.80;;;28.10;57.00;;;;;;4954719;28;20485;-72
2022/08/17 03:25:03;;;;;;;9.17;8.23;;;28.00;56.90;;;;;;4956963;28;20473;-73
2022/08/17 03:27:30;;;;;;;7.80;7.10;;;28.00;56.90;;;;;;4942456;28;20443;-73
2022/08/17 03:29:58;;;;;;;8.00;7.30;;;28.00;56.90;;;;;;4948779;28;20448;-73
2022/08/17 03:32:24;;;;;;;7.60;7.10;;;28.00;56.90;;;;;;4950261;28;20467;-73
2022/08/17 03:34:50;;;;;;;8.00;7.37;;;28.00;57.00;;;;;;4964449;28;21000;-73
2022/08/17 03:37:16;;;;;;;7.77;7.17;;;28.00;57.00;;;;;;4969084;28;20438;-73
2022/08/17 03:39:42;;;;;;;8.10;7.40;;;28.00;57.00;;;;;;4938710;28;20488;-72
2022/08/17 03:42:15;;;;;;;8.40;7.60;;;28.00;57.00;;;;;;4973307;28;20454;-72
2022/08/17 03:44:41;;;;;;;7.97;7.17;;;27.90;57.00;;;;;;4968294;28;20496;-73
2022/08/17 03:58:21;;;;;;;8.07;7.43;;;27.90;57.20;;;;;;4968928;28;20426;-72
2022/08/17 04:00:49;;;;;;;8.37;7.77;;;27.90;57.20;;;;;;4956946;28;20428;-73
2022/08/17 04:03:15;;;;;;;8.27;7.60;;;27.90;57.30;;;;;;4968729;28;20945;-73
2022/08/17 04:05:41;;;;;;;8.60;7.97;;;27.80;57.20;;;;;;4953703;28;20478;-72
2022/08/17 04:08:09;;;;;;;8.70;7.87;;;27.80;57.30;;;;;;4952900;28;20458;-72
2022/08/17 04:10:36;;;;;;;7.80;7.20;;;27.80;57.30;;;;;;4949846;29;20411;-72
2022/08/17 04:13:05;;;;;;;7.90;7.10;;;27.80;57.30;;;;;;4949282;29;21000;-73
2022/08/17 04:15:32;;;;;;;8.53;7.80;;;27.80;57.30;;;;;;4983221;28;20459;-72
2022/08/17 04:17:58;;;;;;;8.17;7.57;;;27.80;57.30;;;;;;4953470;28;20417;-72
2022/08/17 04:20:26;;;;;;;8.57;7.77;;;27.80;57.40;;;;;;4971823;28;20822;-72
2022/08/17 04:23:09;;;;;;;7.77;7.17;;;27.70;57.30;;;;;;4987863;28;20882;-72
2022/08/17 04:25:42;;;;;;;8.50;7.90;;;27.70;57.30;;;;;;4949456;29;20480;-72
2022/08/17 04:28:08;;;;;;;8.27;7.17;;;27.70;57.30;;;;;;4934495;28;20400;-72
2022/08/17 04:30:36;;;;;;;8.57;7.77;;;27.70;57.40;;;;;;4966115;28;20443;-72
2022/08/17 04:33:04;;;;;;;7.97;7.20;;;27.70;57.40;;;;;;4952547;29;20454;-72
2022/08/17 04:35:44;;;;;;;7.97;7.27;;;27.70;57.40;;;;;;4984366;28;20493;-72
2022/08/17 04:38:13;;;;;;;8.03;7.33;;;27.60;57.40;;;;;;4952192;28;20459;-72
2022/08/17 04:43:25;;;;;;;8.37;7.57;;;27.60;57.40;;;;;;4952470;28;20553;-73
2022/08/17 04:45:54;;;;;;;8.20;7.40;;;27.60;57.50;;;;;;4953725;28;20474;-73
2022/08/17 04:48:20;;;;;;;9.20;8.40;;;27.60;57.50;;;;;;4951349;28;20463;-73
2022/08/17 04:50:50;;;;;;;7.50;6.90;;;27.60;57.50;;;;;;4955012;28;20962;-72
2022/08/17 04:53:18;;;;;;;8.63;7.93;;;27.60;57.50;;;;;;4969125;28;20972;-72
2022/08/17 04:55:45;;;;;;;8.63;7.83;;;27.60;57.50;;;;;;4972628;28;20402;-72
2022/08/17 04:58:13;;;;;;;8.57;7.77;;;27.50;57.50;;;;;;4969392;28;20426;-72
2022/08/17 05:00:39;;;;;;;8.47;7.67;;;27.50;57.50;;;;;;4948976;29;20843;-72
2022/08/17 05:03:09;;;;;;;7.70;6.87;;;27.50;57.50;;;;;;4933952;28;20487;-72
2022/08/17 05:05:37;;;;;;;7.60;7.10;;;27.50;57.50;;;;;;4934179;29;20414;-72
2022/08/17 05:08:06;;;;;;;8.17;7.47;;;27.50;57.60;;;;;;4939125;28;20450;-72
2022/08/17 05:10:36;;;;;;;8.70;8.00;;;27.50;57.60;;;;;;4983484;28;20431;-72
2022/08/17 05:13:28;;;;;;;7.70;7.07;;;27.50;57.60;;;;;;4945140;28;20457;-72
2022/08/17 05:15:57;;;;;;;7.90;7.30;;;27.40;57.50;;;;;;4936994;29;20891;-73
2022/08/17 05:18:24;;;;;;;7.87;7.27;;;27.40;57.60;;;;;;4949314;28;20435;-72
2022/08/17 05:20:59;;;;;;;8.47;7.77;;;27.40;57.60;;;;;;4956420;28;20439;-72
2022/08/17 05:23:27;;;;;;;7.90;7.20;;;27.40;57.60;;;;;;4954254;28;20822;-72
2022/08/17 05:25:55;;;;;;;7.27;6.77;;;27.40;57.70;;;;;;4971166;28;20506;-72
2022/08/17 05:28:26;;;;;;;8.00;7.30;;;27.40;57.60;;;;;;4952834;28;20466;-72
2022/08/17 05:30:53;;;;;;;7.10;6.50;;;27.40;57.70;;;;;;4972242;28;20406;-72
2022/08/17 05:33:26;;;;;;;7.37;6.77;;;27.30;57.60;;;;;;4953138;28;20465;-72
2022/08/17 05:35:54;;;;;;;7.50;6.87;;;27.40;57.70;;;;;;4972335;28;20477;-72
2022/08/17 05:38:24;;;;;;;7.53;6.90;;;27.30;57.70;;;;;;4947064;28;20939;-72
2022/08/17 05:40:53;;;;;;;7.17;6.60;;;27.30;57.70;;;;;;4972151;28;20417;-72
2022/08/17 05:43:29;;;;;;;7.00;6.40;;;27.30;57.70;;;;;;4969320;28;20837;-72
2022/08/17 05:46:05;;;;;;;7.60;7.00;;;27.30;57.80;;;;;;4971186;28;20425;-72
2022/08/17 05:48:41;;;;;;;6.83;6.23;;;27.30;57.70;;;;;;4974687;28;20455;-72
2022/08/17 05:51:38;;;;;;;7.40;6.80;;;27.30;57.80;;;;;;4954713;28;20450;-72
2022/08/17 05:54:25;;;;;;;7.10;6.60;;;27.30;57.80;;;;;;4987352;28;20407;-72
2022/08/17 05:57:29;;;;;;;7.43;6.83;;;27.30;57.80;;;;;;4987082;28;20992;-72
2022/08/17 06:00:25;;;;;;;6.67;6.13;;;27.30;57.90;;;;;;4951553;28;21044;-72
2022/08/17 06:03:14;;;;;;;7.67;6.90;;;27.30;57.90;;;;;;4977151;28;20467;-72
2022/08/17 06:06:02;;;;;;;7.57;6.97;;;27.20;57.90;;;;;;4956233;28;20419;-72
2022/08/17 06:08:31;;;;;;;7.23;6.63;;;27.20;58.10;;;;;;4951306;28;20490;-72
2022/08/17 06:11:54;;;;;;;8.10;7.40;;;27.20;58.30;;;;;;4955925;28;20431;-72
2022/08/17 06:14:35;;;;;;;7.50;6.83;;;27.20;58.20;;;;;;4898593;29;20528;-72
2022/08/17 06:17:09;;;;;;;6.33;5.73;;;27.20;58.80;;;;;;4926221;29;20797;-72
2022/08/17 06:19:50;;;;;;;7.30;6.60;;;27.20;58.20;;;;;;4901008;29;20450;-72
2022/08/17 06:22:19;;;;;;;7.13;6.53;;;27.20;58.40;;;;;;4908424;29;20617;-74
2022/08/17 06:24:55;;;;;;;6.17;5.67;;;27.20;58.50;;;;;;4867609;29;20512;-72
2022/08/17 06:27:29;;;;;;;6.67;6.17;;;27.10;58.40;;;;;;4911000;29;20908;-73
2022/08/17 06:30:11;;;;;;;6.73;6.13;;;27.10;58.40;;;;;;4896228;29;20567;-74
2022/08/17 06:32:43;;;;;;;6.67;6.00;;;27.10;58.30;;;;;;4911753;29;20465;-73
2022/08/17 06:35:24;;;;;;;6.70;6.20;;;27.10;58.30;;;;;;4920783;29;20451;-74
2022/08/17 06:38:13;;;;;;;6.63;6.03;;;27.10;58.30;;;;;;4925125;29;20508;-74
2022/08/17 06:40:58;;;;;;;6.67;5.63;;;27.10;58.20;;;;;;4900066;29;20508;-74
2022/08/17 06:43:31;;;;;;;6.20;5.70;;;27.10;58.20;;;;;;4913194;29;20468;-74
2022/08/17 06:46:24;;;;;;;6.90;6.37;;;27.10;58.20;;;;;;4939396;29;20450;-74
2022/08/17 06:49:07;;;;;;;8.47;6.23;;;27.10;58.20;;;;;;4943501;28;20446;-74
2022/08/17 06:51:51;;;;;;;8.20;6.10;;;27.10;58.20;;;;;;4956381;28;20920;-74
2022/08/17 06:54:55;;;;;;;6.20;5.60;;;27.10;58.10;;;;;;4969759;28;20470;-74
2022/08/17 06:57:27;;;;;;;7.10;6.47;;;27.10;58.10;;;;;;4914817;28;20576;-74
2022/08/17 06:59:59;;;;;;;7.13;5.00;;;27.00;58.10;;;;;;4939197;28;20500;-74
2022/08/17 07:03:10;;;;;;;6.10;5.60;;;27.00;58.10;;;;;;4953730;28;20514;-74
2022/08/17 07:05:51;;;;;;;6.73;6.03;;;27.00;58.10;;;;;;4948885;28;20533;-74
2022/08/17 07:08:21;;;;;;;6.07;5.57;;;27.00;58.10;;;;;;4983118;28;20455;-74
2022/08/17 07:10:59;;;;;;;6.43;5.63;;;27.00;58.10;;;;;;4969042;28;20458;-74
2022/08/17 07:13:29;;;;;;;6.03;5.63;;;27.00;58.10;;;;;;4968062;28;20566;-74
2022/08/17 07:16:05;;;;;;;6.50;5.90;;;27.00;58.00;;;;;;4938401;29;20475;-75
2022/08/17 07:18:36;;;;;;;8.20;6.70;;;27.00;58.10;;;;;;4954313;29;20463;-75
2022/08/17 07:21:11;;;;;;;6.47;5.97;;;27.00;58.20;;;;;;4970411;28;20442;-74
2022/08/17 07:23:47;;;;;;;6.70;6.20;;;27.00;58.20;;;;;;4954003;29;21015;-74
2022/08/17 07:26:42;;;;;;;7.13;6.40;;;27.00;58.20;;;;;;4955462;29;20400;-75
2022/08/17 07:29:16;;;;;;;6.43;5.90;;;27.00;58.30;;;;;;4939453;29;20489;-75
2022/08/17 07:31:43;;;;;;;7.20;6.50;;;27.00;58.40;;;;;;4954596;29;20407;-74
2022/08/17 07:34:13;;;;;;;7.40;6.70;;;27.00;58.50;;;;;;4986108;28;20489;-74
2022/08/17 07:36:41;;;;;;;6.97;6.27;;;27.00;58.60;;;;;;4987129;28;20462;-74
2022/08/17 07:39:24;;;;;;;7.27;6.60;;;27.00;58.60;;;;;;4921252;29;20459;-74
2022/08/17 07:42:01;;;;;;;7.67;7.07;;;27.00;58.50;;;;;;4937048;29;20451;-73
2022/08/17 07:44:29;;;;;;;8.20;7.13;;;27.00;58.50;;;;;;4936554;29;20451;-73
2022/08/17 07:49:46;;;;;;;8.63;7.83;;;27.00;58.90;;;;;;4966747;28;20890;-73
2022/08/17 07:52:32;;;;;;;7.73;7.13;;;27.00;58.90;;;;;;4949234;29;20457;-73
2022/08/17 07:54:58;;;;;;;8.23;7.53;;;27.00;58.80;;;;;;4938745;29;20445;-75
2022/08/17 07:57:35;;;;;;;7.63;7.03;;;27.00;58.90;;;;;;4949444;29;20487;-73
2022/08/17 08:00:01;;;;;;;9.00;8.40;;;27.00;58.80;;;;;;4951077;29;20452;-75
2022/08/17 08:02:39;;;;;;;8.67;7.77;;;27.00;59.00;;;;;;4938710;29;20497;-75
2022/08/17 08:05:11;;;;;;;8.93;7.27;;;27.00;59.00;;;;;;4952722;29;20538;-74
2022/08/17 08:07:50;;;;;;;8.67;8.03;;;27.00;59.00;;;;;;4955640;28;20445;-75
2022/08/17 08:10:34;;;;;;;8.63;7.40;;;27.00;58.90;;;;;;4967169;28;20432;-74
2022/08/17 08:13:27;;;;;;;7.97;7.37;;;27.00;58.80;;;;;;4935018;29;20788;-76
2022/08/17 08:16:29;;;;;;;8.07;7.37;;;27.00;58.70;;;;;;4933332;29;20835;-75
2022/08/17 08:18:58;;;;;;;8.13;7.37;;;27.00;58.60;;;;;;4938016;28;20693;-77
2022/08/17 08:21:34;;;;;;;8.13;7.53;;;27.00;58.60;;;;;;4983605;28;20451;-76
2022/08/17 08:24:28;;;;;;;8.40;7.80;;;27.00;58.60;;;;;;4953483;29;20466;-73
2022/08/17 08:27:20;;;;;;;8.43;7.73;;;27.00;58.60;;;;;;4946173;28;20987;-74
2022/08/17 08:30:04;;;;;;;8.67;7.97;;;27.00;58.80;;;;;;4953405;29;20621;-74
2022/08/17 08:32:55;;;;;;;8.60;7.90;;;27.00;58.80;;;;;;4955397;28;21159;-75
2022/08/17 08:36:06;;;;;;;9.93;8.90;;;27.00;58.70;;;;;;4937920;29;20412;-75
2022/08/17 08:39:05;;;;;;;9.40;8.60;;;27.00;59.30;;;;;;4917607;29;20436;-73
2022/08/17 08:41:39;;;;;;;9.47;8.67;;;27.00;59.10;;;;;;4904303;29;20424;-76
2022/08/17 08:44:29;;;;;;;8.70;7.90;;;27.00;59.10;;;;;;4932826;29;20467;-76
2022/08/17 08:47:06;;;;;;;9.37;8.60;;;27.00;59.00;;;;;;4926074;29;20432;-76
2022/08/17 08:50:02;;;;;;;10.33;9.43;;;27.00;59.00;;;;;;4916951;29;20420;-76
2022/08/17 08:52:36;;;;;;;8.80;8.07;;;27.00;59.20;;;;;;4932983;29;20452;-76
2022/08/17 08:55:33;;;;;;;8.93;8.23;;;27.00;59.10;;;;;;4932554;29;20448;-77
2022/08/17 08:59:00;;;;;;;10.23;9.43;;;27.00;59.00;;;;;;4828084;29;20436;-76
2022/08/17 09:01:58;;;;;;;11.33;10.23;;;27.00;59.20;;;;;;4913517;29;20893;-76
2022/08/17 09:04:34;;;;;;;10.80;10.00;;;27.00;59.20;;;;;;4930799;29;20501;-76
2022/08/17 09:07:19;;;;;;;9.60;8.90;;;27.00;59.30;;;;;;4931073;29;20428;-76
2022/08/17 09:10:12;;;;;;;10.20;9.30;;;27.00;59.30;;;;;;4927544;28;20549;-76
2022/08/17 09:12:53;;;;;;;9.80;8.93;;;27.00;59.30;;;;;;4945622;29;20463;-75
2022/08/17 09:15:27;;;;;;;10.10;9.20;;;27.00;59.30;;;;;;4969827;28;20423;-75
2022/08/17 09:21:15;;;;;;;11.40;10.50;;;27.00;59.20;;;;;;4933781;29;20456;-68
2022/08/17 09:24:24;;;;;;;10.30;9.40;;;27.00;59.10;;;;;;4910248;29;20484;-68
2022/08/17 09:27:01;;;;;;;10.20;9.37;;;27.00;59.20;;;;;;4920472;29;20423;-68
2022/08/17 09:29:38;;;;;;;11.23;10.23;;;27.00;59.40;;;;;;4918989;29;20414;-68
2022/08/17 09:32:53;;;;;;;10.97;9.97;;;27.00;59.50;;;;;;4920134;29;20528;-68
2022/08/17 09:35:28;;;;;;;11.80;10.80;;;27.00;59.60;;;;;;4919872;29;20424;-68
2022/08/17 09:37:59;;;;;;;10.73;9.83;;;27.00;60.00;;;;;;4903552;29;20412;-68
2022/08/17 09:40:31;;;;;;;10.60;9.80;;;27.00;60.00;;;;;;4920097;29;20405;-68
2022/08/17 09:43:23;;;;;;;10.80;9.80;;;27.00;59.80;;;;;;4919886;29;20888;-68
2022/08/17 09:45:49;;;;;;;11.93;10.77;;;27.00;59.70;;;;;;4934646;29;20400;-68
2022/08/17 09:48:27;;;;;;;11.33;10.50;;;27.00;60.10;;;;;;4918894;29;20409;-68
2022/08/17 09:51:14;;;;;;;12.00;11.10;;;27.00;60.00;;;;;;4918828;29;20408;-68
2022/08/17 09:53:41;;;;;;;10.90;10.10;;;27.00;60.20;;;;;;4919858;29;20509;-68
2022/08/17 09:56:10;;;;;;;11.57;10.57;;;27.00;60.00;;;;;;4918744;29;20487;-68
2022/08/17 09:58:58;;;;;;;12.67;11.67;;;27.00;60.30;;;;;;4919798;29;20907;-68
2022/08/17 10:01:34;;;;;;;12.03;11.00;;;27.00;60.60;;;;;;4919807;29;20406;-68
2022/08/17 10:04:32;;;;;;;12.07;11.00;;;27.00;60.80;;;;;;4919688;29;20448;-68
2022/08/17 10:07:13;;;;;;;13.33;12.03;;;27.00;60.70;;;;;;4915831;29;21021;-68
2022/08/17 10:10:03;;;;;;;11.23;10.20;;;27.00;60.50;;;;;;4919605;29;20408;-68
2022/08/17 10:12:49;;;;;;;12.50;11.50;;;27.00;60.70;;;;;;4919041;29;20464;-68
2022/08/17 10:15:52;;;;;;;12.50;11.23;;;27.00;60.70;;;;;;4919523;29;20823;-68
2022/08/17 10:18:25;;;;;;;13.30;12.20;;;27.00;61.40;;;;;;4908029;29;20439;-68
2022/08/17 10:26:54;;;;;;;13.33;12.20;;;26.90;61.70;;;;;;4918168;29;21031;-68
2022/08/17 10:29:55;;;;;;;13.53;12.43;;;26.90;61.70;;;;;;4919139;29;20405;-68
2022/08/17 10:32:49;;;;;;;13.00;12.00;;;26.90;61.80;;;;;;4917996;29;20440;-68
2022/08/17 10:35:24;;;;;;;12.77;11.70;;;26.90;61.80;;;;;;4917748;29;20441;-68
2022/08/17 10:38:21;;;;;;;13.13;12.00;;;26.90;61.80;;;;;;4919119;29;20476;-68
2022/08/17 10:41:22;;;;;;;13.90;12.33;;;26.90;61.60;;;;;;4918645;29;20451;-69
2022/08/17 10:44:01;;;;;;;12.87;11.87;;;26.90;61.70;;;;;;4918685;29;20833;-68
2022/08/17 10:47:00;;;;;;;13.00;11.90;;;26.90;61.80;;;;;;4917964;29;20453;-68
2022/08/17 10:49:32;;;;;;;13.80;12.53;;;26.90;62.80;;;;;;4918974;29;20416;-68
2022/08/17 10:52:05;;;;;;;13.30;12.20;;;26.90;62.30;;;;;;4918764;29;20447;-68
2022/08/17 10:54:45;;;;;;;12.70;11.70;;;26.90;62.40;;;;;;4917622;29;20424;-68
2022/08/17 10:57:32;;;;;;;14.47;13.07;;;26.90;62.50;;;;;;4917559;29;20412;-68
2022/08/17 10:59:58;;;;;;;13.93;12.73;;;26.90;62.80;;;;;;4918665;29;20421;-68
2022/08/17 11:02:40;;;;;;;13.93;12.80;;;26.90;63.00;;;;;;4917478;29;20440;-68
2022/08/17 11:05:39;;;;;;;13.57;12.33;;;26.90;62.90;;;;;;4918703;29;20402;-68
2022/08/17 11:08:26;;;;;;;14.33;13.00;;;26.90;63.00;;;;;;4917665;29;20405;-68
2022/08/17 11:11:15;;;;;;;12.80;11.90;;;26.90;62.90;;;;;;4918482;29;20436;-67
2022/08/17 11:14:07;;;;;;;12.67;11.67;;;26.80;62.60;;;;;;4901801;29;20531;-68
2022/08/17 11:16:52;;;;;;;13.47;12.10;;;26.80;62.60;;;;;;4901798;29;20922;-68
2022/08/17 11:19:42;;;;;;;13.70;12.60;;;26.80;62.60;;;;;;4918264;29;20438;-68
2022/08/17 11:22:28;;;;;;;13.23;12.03;;;26.90;62.70;;;;;;4918293;29;20441;-68
2022/08/17 11:25:10;;;;;;;13.17;12.07;;;26.80;62.60;;;;;;4918269;29;20512;-68
2022/08/17 11:27:39;;;;;;;13.67;12.57;;;26.80;62.60;;;;;;4901382;29;20456;-68
2022/08/17 11:30:45;;;;;;;13.27;12.17;;;26.80;62.90;;;;;;4901494;29;20435;-68
2022/08/17 11:33:33;;;;;;;13.50;12.40;;;26.80;63.30;;;;;;4901040;29;20453;-68
2022/08/17 11:36:08;;;;;;;13.60;12.40;;;26.80;63.10;;;;;;4918031;29;20461;-68
2022/08/17 11:38:56;;;;;;;13.63;12.43;;;26.80;62.90;;;;;;4916871;29;20451;-68
2022/08/17 11:42:04;;;;;;;13.00;11.90;;;26.90;63.30;;;;;;4916909;29;20500;-68
2022/08/17 11:44:38;;;;;;;13.43;12.17;;;26.80;63.10;;;;;;4900886;29;20593;-68
2022/08/17 11:53:36;;;;;;;14.30;13.00;;;26.90;63.30;;;;;;4916536;29;20437;-68
2022/08/17 11:56:08;;;;;;;13.10;12.00;;;26.90;63.00;;;;;;4900992;29;20421;-68
2022/08/17 11:58:42;;;;;;;14.97;13.67;;;26.90;63.30;;;;;;4917721;29;20774;-68
2022/08/17 12:01:50;;;;;;;13.73;12.70;;;26.90;63.10;;;;;;4917710;29;20416;-68
2022/08/17 12:04:27;;;;;;;15.20;13.90;;;26.90;63.00;;;;;;4906375;29;20563;-68
2022/08/17 12:07:15;;;;;;;14.90;13.77;;;26.90;63.10;;;;;;4916555;29;20432;-68
2022/08/17 12:09:52;;;;;;;14.50;13.20;;;26.90;63.50;;;;;;4900805;29;20433;-68
2022/08/17 12:12:34;;;;;;;15.53;14.27;;;27.00;63.60;;;;;;4917550;29;20435;-66
2022/08/17 12:15:06;;;;;;;13.50;12.17;;;27.00;63.30;;;;;;4916317;29;20489;-68
2022/08/17 12:17:35;;;;;;;13.90;12.80;;;27.00;63.60;;;;;;4900588;29;20436;-68
2022/08/17 12:20:33;;;;;;;14.57;13.10;;;27.00;63.40;;;;;;4916296;29;20973;-68
2022/08/17 12:23:10;;;;;;;14.40;13.20;;;27.00;63.40;;;;;;4916009;29;20475;-69
2022/08/17 12:25:55;;;;;;;14.00;13.00;;;27.00;63.40;;;;;;4916191;29;20420;-68
2022/08/17 12:28:27;;;;;;;15.40;14.10;;;27.00;63.80;;;;;;4916936;29;20441;-68
2022/08/17 12:31:04;;;;;;;15.20;13.80;;;27.00;63.90;;;;;;4916028;29;20527;-68
2022/08/17 12:33:30;;;;;;;14.97;13.70;;;27.00;63.80;;;;;;4915920;29;20452;-70
2022/08/17 12:36:13;;;;;;;14.13;13.03;;;27.00;63.60;;;;;;4915213;29;20491;-69
2022/08/17 12:39:03;;;;;;;17.17;15.40;;;27.00;63.60;;;;;;4914962;29;20440;-68
2022/08/17 12:41:33;;;;;;;15.50;14.00;;;27.10;64.00;;;;;;4900071;29;20522;-66
2022/08/17 12:44:02;;;;;;;15.30;14.10;;;27.10;64.00;;;;;;4916554;29;20471;-68
2022/08/17 12:46:33;;;;;;;15.80;14.50;;;27.10;63.80;;;;;;4916003;29;20532;-67
2022/08/17 12:49:38;;;;;;;17.03;15.53;;;27.10;63.80;;;;;;4916784;29;20415;-68
2022/08/17 12:52:14;;;;;;;14.90;13.70;;;27.10;64.20;;;;;;4897409;29;20461;-68
2022/08/17 12:54:44;;;;;;;17.20;15.47;;;27.10;64.20;;;;;;4915658;29;20495;-68
2022/08/17 12:57:24;;;;;;;16.67;15.37;;;27.10;64.10;;;;;;4900122;29;20779;-68
2022/08/17 12:59:57;;;;;;;16.77;15.27;;;27.10;64.10;;;;;;4917315;29;20400;-68
2022/08/17 13:02:44;;;;;;;16.80;15.50;;;27.10;64.50;;;;;;4920777;29;20492;-68
2022/08/17 13:05:30;;;;;;;17.60;16.20;;;27.20;64.40;;;;;;4919739;29;20543;-68
2022/08/17 13:08:13;;;;;;;17.17;15.77;;;27.10;64.60;;;;;;4920801;29;20496;-68
2022/08/17 13:10:44;;;;;;;16.60;15.20;;;27.20;64.40;;;;;;4919686;29;20455;-68
2022/08/17 13:13:25;;;;;;;16.97;15.47;;;27.20;64.40;;;;;;4904106;29;20525;-68
2022/08/17 13:16:00;;;;;;;18.43;16.73;;;27.20;64.20;;;;;;4920542;29;20416;-68
2022/08/17 13:18:35;;;;;;;15.70;14.50;;;27.20;64.10;;;;;;4919697;29;20403;-68
2022/08/17 13:21:01;;;;;;;16.03;14.73;;;27.30;64.30;;;;;;4920565;29;20426;-68
2022/08/17 13:23:30;;;;;;;17.13;15.80;;;27.30;64.40;;;;;;4919050;29;21009;-68
2022/08/17 13:26:05;;;;;;;16.07;14.67;;;27.30;64.40;;;;;;4919300;29;20405;-69
2022/08/17 13:28:53;;;;;;;16.87;15.50;;;27.30;64.30;;;;;;4905066;29;20480;-68
2022/08/17 13:31:25;;;;;;;16.60;15.20;;;27.30;64.40;;;;;;4919168;29;20950;-68
2022/08/17 13:34:20;;;;;;;16.10;14.77;;;27.30;64.40;;;;;;4919036;29;20880;-68
2022/08/17 13:36:52;;;;;;;17.43;16.03;;;27.30;64.40;;;;;;4919104;29;20440;-68
2022/08/17 13:39:21;;;;;;;18.30;16.70;;;27.30;64.50;;;;;;4919041;29;20401;-68
2022/08/17 13:41:49;;;;;;;18.13;16.50;;;27.30;64.70;;;;;;4918878;29;20463;-68
2022/08/17 13:44:32;;;;;;;19.00;17.30;;;27.40;65.30;;;;;;4918780;29;20468;-68
2022/08/17 13:47:05;;;;;;;17.93;16.23;;;27.40;65.30;;;;;;4919014;29;20433;-68
2022/08/17 13:49:36;;;;;;;18.93;17.20;;;27.40;65.40;;;;;;4903302;29;20508;-68
2022/08/17 13:52:04;;;;;;;18.87;17.37;;;27.40;65.40;;;;;;4920117;29;20446;-68
2022/08/17 13:54:37;;;;;;;18.77;17.10;;;27.40;65.60;;;;;;4903026;29;20428;-68
2022/08/17 13:57:32;;;;;;;19.10;17.70;;;27.40;66.60;;;;;;4907716;29;20945;-68
2022/08/17 14:00:28;;;;;;;19.07;17.57;;;27.40;66.20;;;;;;4918817;29;20440;-68
2022/08/17 14:02:59;;;;;;;18.10;16.50;;;27.40;66.20;;;;;;4918616;29;20495;-68